createdAt,value
2023-05-20T00:02:39.911Z,1.00
2023-05-20T00:07:44.167Z,0.95
2023-05-20T00:12:48.012Z,1.00
2023-05-20T00:17:50.841Z,1.08
2023-05-20T00:22:54.946Z,1.00
2023-05-20T00:27:57.815Z,1.00
2023-05-20T00:33:00.746Z,0.90
2023-05-20T00:38:05.814Z,1.10
2023-05-20T00:43:08.590Z,1.00
2023-05-20T00:48:11.637Z,1.08
2023-05-20T00:53:18.192Z,1.00
2023-05-20T00:58:21.053Z,1.10
2023-05-20T01:03:24.321Z,1.00
2023-05-20T01:08:29.109Z,1.10
2023-05-20T01:13:46.970Z,1.00
2023-05-20T01:18:50.712Z,1.40
2023-05-20T01:23:54.936Z,1.00
2023-05-20T01:28:57.927Z,1.05
2023-05-20T01:34:01.663Z,0.80
2023-05-20T01:39:07.717Z,1.00
2023-05-20T01:44:10.938Z,1.00
2023-05-20T01:49:13.706Z,1.08
2023-05-20T01:54:17.816Z,0.88
2023-05-20T01:59:20.604Z,1.17
2023-05-20T02:04:23.915Z,1.02
2023-05-20T02:09:28.050Z,1.15
2023-05-20T02:14:30.929Z,1.10
2023-05-20T02:19:33.721Z,1.05
2023-05-20T02:24:37.873Z,1.30
2023-05-20T02:29:40.763Z,1.15
2023-05-20T02:34:43.534Z,1.20
2023-05-20T02:39:47.725Z,1.33
2023-05-20T02:44:51.133Z,1.40
2023-05-20T02:49:54.212Z,1.27
2023-05-20T02:54:58.867Z,1.17
2023-05-20T03:00:01.798Z,1.30
2023-05-20T03:05:05.401Z,1.17
2023-05-20T03:10:10.785Z,1.05
2023-05-20T03:15:17.024Z,1.33
2023-05-20T03:20:21.217Z,1.50
2023-05-20T03:25:26.176Z,1.10
2023-05-20T03:30:29.641Z,1.30
2023-05-20T03:35:33.553Z,1.33
2023-05-20T03:40:38.051Z,1.50
2023-05-20T03:45:41.796Z,2.28
2023-05-20T03:50:44.673Z,1.35
2023-05-20T03:55:48.883Z,1.40
2023-05-20T04:00:52.278Z,1.17
2023-05-20T04:05:55.614Z,1.40
2023-05-20T04:11:00.314Z,1.23
2023-05-20T04:16:05.370Z,1.20
2023-05-20T04:21:08.897Z,1.10
2023-05-20T04:26:13.151Z,1.40
2023-05-20T04:31:16.237Z,1.13
2023-05-20T04:36:19.550Z,1.40
2023-05-20T04:41:27.403Z,1.35
2023-05-20T04:46:31.686Z,1.45
2023-05-20T04:51:35.459Z,1.15
2023-05-20T04:56:40.386Z,1.30
2023-05-20T05:01:43.706Z,1.50
2023-05-20T05:06:48.910Z,1.40
2023-05-20T05:11:53.182Z,1.70
2023-05-20T05:16:56.157Z,1.67
2023-05-20T05:21:59.143Z,1.42
2023-05-20T05:27:03.521Z,1.33
2023-05-20T05:32:07.055Z,1.63
2023-05-20T05:37:10.385Z,1.35
2023-05-20T05:42:15.188Z,1.30
2023-05-20T05:47:18.158Z,1.40
2023-05-20T05:52:24.057Z,1.40
2023-05-20T05:57:28.478Z,1.50
2023-05-20T06:02:36.039Z,1.38
2023-05-20T06:07:39.161Z,1.40
2023-05-20T06:12:43.608Z,1.67
2023-05-20T06:17:46.716Z,1.50
2023-05-20T06:22:51.338Z,1.60
2023-05-20T06:27:56.975Z,1.42
2023-05-20T06:33:00.842Z,1.80
2023-05-20T06:38:04.058Z,1.35
2023-05-20T06:43:08.475Z,1.40
2023-05-20T06:48:40.627Z,1.40
2023-05-20T06:53:44.138Z,1.52
2023-05-20T06:58:48.575Z,1.40
2023-05-20T07:03:52.176Z,1.60
2023-05-20T07:08:55.337Z,1.55
2023-05-20T07:13:59.787Z,1.60
2023-05-20T07:19:06.623Z,1.38
2023-05-20T07:24:10.427Z,1.50
2023-05-20T07:29:15.151Z,1.70
2023-05-20T07:34:18.136Z,1.42
2023-05-20T07:39:21.816Z,1.58
2023-05-20T07:44:26.655Z,1.30
2023-05-20T07:49:30.322Z,1.70
2023-05-20T07:54:33.359Z,1.50
2023-05-20T07:59:37.651Z,1.88
2023-05-20T08:04:41.207Z,1.60
2023-05-20T08:09:44.189Z,1.63
2023-05-20T08:14:48.619Z,1.60
2023-05-20T08:19:51.554Z,1.70
2023-05-20T08:24:54.610Z,1.80
2023-05-20T08:30:00.590Z,1.70
2023-05-20T08:35:04.439Z,1.90
2023-05-20T08:40:09.823Z,2.47
2023-05-20T08:45:18.510Z,1.90
2023-05-20T08:50:22.229Z,1.90
2023-05-20T08:55:27.108Z,1.67
2023-05-20T09:00:32.138Z,1.48
2023-05-20T09:05:36.014Z,1.50
2023-05-20T09:10:40.037Z,1.38
2023-05-20T09:15:44.198Z,1.67
2023-05-20T09:20:48.707Z,1.67
2023-05-20T09:25:52.341Z,1.40
2023-05-20T09:30:59.756Z,1.55
2023-05-20T09:36:05.522Z,1.60
2023-05-20T09:41:09.592Z,1.67
2023-05-20T09:46:14.517Z,1.80
2023-05-20T09:51:19.380Z,1.92
2023-05-20T09:56:23.820Z,1.88
2023-05-20T10:01:28.111Z,1.58
2023-05-20T10:06:46.649Z,1.65
2023-05-20T10:11:58.628Z,1.73
2023-05-20T10:17:12.112Z,2.03
2023-05-20T10:22:15.081Z,1.70
2023-05-20T10:27:19.252Z,1.88
2023-05-20T10:32:27.838Z,2.42
2023-05-20T10:37:31.946Z,2.03
2023-05-20T10:42:34.991Z,2.03
2023-05-20T10:47:54.669Z,1.70
2023-05-20T10:53:05.215Z,1.50
2023-05-20T10:58:08.783Z,1.40
2023-05-20T11:03:14.932Z,1.70
2023-05-20T11:08:28.694Z,1.70
2023-05-20T11:13:32.531Z,2.60
2023-05-20T11:18:36.650Z,3.33
2023-05-20T11:23:40.691Z,2.20
2023-05-20T11:28:43.863Z,3.40
2023-05-20T11:33:48.553Z,3.03
2023-05-20T11:38:52.865Z,2.63
2023-05-20T11:43:59.423Z,2.20
2023-05-20T11:49:03.897Z,2.47
2023-05-20T11:54:08.607Z,1.70
2023-05-20T11:59:11.515Z,1.70
2023-05-20T12:04:16.339Z,2.28
2023-05-20T12:09:20.016Z,1.83
2023-05-20T12:14:22.778Z,2.30
2023-05-20T12:19:26.965Z,2.33
2023-05-20T12:24:29.839Z,1.80
2023-05-20T12:29:32.629Z,1.75
2023-05-20T12:34:37.026Z,2.25
2023-05-20T12:39:39.834Z,2.35
2023-05-20T12:44:42.621Z,1.80
2023-05-20T12:49:46.730Z,2.85
2023-05-20T12:54:49.652Z,2.38
2023-05-20T12:59:52.606Z,2.55
2023-05-20T13:04:56.774Z,1.88
2023-05-20T13:09:59.697Z,1.80
2023-05-20T13:15:03.911Z,1.80
2023-05-20T13:20:10.937Z,1.77
2023-05-20T13:25:13.786Z,1.58
2023-05-20T13:30:16.620Z,1.90
2023-05-20T13:35:20.922Z,2.00
2023-05-20T13:40:23.817Z,1.85
2023-05-20T13:45:26.875Z,4.32
2023-05-20T13:50:30.955Z,1.88
2023-05-20T13:55:33.844Z,3.03
2023-05-20T14:00:37.252Z,2.63
2023-05-20T14:05:41.550Z,2.70
2023-05-20T14:10:44.296Z,3.10
2023-05-20T14:15:47.077Z,3.10
2023-05-20T14:20:51.361Z,2.30
2023-05-20T14:25:54.278Z,2.90
2023-05-20T14:30:57.125Z,1.73
2023-05-20T14:36:01.308Z,2.85
2023-05-20T14:41:04.339Z,1.90
2023-05-20T14:46:07.658Z,1.95
2023-05-20T14:51:11.825Z,2.70
2023-05-20T14:56:14.927Z,2.97
2023-05-20T15:01:18.041Z,2.00
2023-05-20T15:06:22.242Z,2.42
2023-05-20T15:11:25.390Z,3.75
2023-05-20T15:16:28.222Z,1.90
2023-05-20T15:21:32.448Z,2.53
2023-05-20T15:26:35.433Z,2.80
2023-05-20T15:31:38.274Z,2.47
2023-05-20T15:36:42.620Z,3.33
2023-05-20T15:41:47.976Z,3.17
2023-05-20T15:46:50.908Z,2.85
2023-05-20T15:52:02.885Z,2.70
2023-05-20T15:57:06.828Z,4.20
2023-05-20T16:02:10.742Z,3.00
2023-05-20T16:07:15.133Z,2.95
2023-05-20T16:12:18.385Z,2.92
2023-05-20T16:17:21.768Z,3.58
2023-05-20T16:22:26.147Z,3.00
2023-05-20T16:27:29.127Z,3.40
2023-05-20T16:32:32.120Z,2.88
2023-05-20T16:37:36.520Z,3.17
2023-05-20T16:42:39.928Z,3.10
2023-05-20T16:47:42.840Z,3.55
2023-05-20T16:52:46.985Z,4.25
2023-05-20T16:57:50.539Z,4.00
2023-05-20T17:02:53.350Z,3.60
2023-05-20T17:08:00.062Z,3.80
2023-05-20T17:13:03.988Z,3.40
2023-05-20T17:18:06.962Z,3.05
2023-05-20T17:23:11.471Z,4.00
2023-05-20T17:28:14.391Z,5.30
2023-05-20T17:33:17.616Z,3.80
2023-05-20T17:38:26.120Z,2.85
2023-05-20T17:43:29.082Z,3.10
2023-05-20T17:48:32.941Z,4.25
2023-05-20T17:53:37.229Z,4.70
2023-05-20T17:58:40.521Z,4.53
2023-05-20T18:03:43.539Z,3.17
2023-05-20T18:08:47.824Z,5.45
2023-05-20T18:13:50.990Z,5.93
2023-05-20T18:18:53.991Z,4.15
2023-05-20T18:23:58.284Z,4.18
2023-05-20T18:29:01.457Z,4.65
2023-05-20T18:34:04.458Z,4.30
2023-05-20T18:39:08.844Z,3.47
2023-05-20T18:44:11.691Z,5.55
2023-05-20T18:49:14.687Z,4.68
2023-05-20T18:54:18.993Z,4.60
2023-05-20T18:59:23.904Z,3.60
2023-05-20T19:04:27.968Z,3.55
2023-05-20T19:09:32.990Z,4.00
2023-05-20T19:14:36.202Z,4.10
2023-05-20T19:19:39.176Z,3.70
2023-05-20T19:24:43.513Z,4.50
2023-05-20T19:29:46.457Z,3.67
2023-05-20T19:34:49.276Z,3.42
2023-05-20T19:39:53.473Z,3.40
2023-05-20T19:44:57.318Z,2.92
2023-05-20T19:50:00.203Z,2.80
2023-05-20T19:55:04.850Z,3.10
2023-05-20T20:00:11.282Z,2.75
2023-05-20T20:05:17.264Z,2.80
2023-05-20T20:10:21.523Z,3.08
2023-05-20T20:15:25.083Z,2.90
2023-05-20T20:20:27.971Z,2.70
2023-05-20T20:25:34.101Z,2.38
2023-05-20T20:30:37.517Z,2.80
2023-05-20T20:35:40.377Z,1.98
2023-05-20T20:40:44.934Z,2.65
2023-05-20T20:45:47.882Z,2.22
2023-05-20T20:50:50.939Z,2.72
2023-05-20T20:55:56.976Z,2.38
2023-05-20T21:00:59.829Z,2.33
2023-05-20T21:06:02.770Z,2.10
2023-05-20T21:11:07.132Z,2.65
2023-05-20T21:16:10.239Z,2.78
2023-05-20T21:21:14.845Z,2.42
2023-05-20T21:26:21.188Z,2.88
2023-05-20T21:31:23.986Z,2.53
2023-05-20T21:36:26.921Z,2.85
2023-05-20T21:41:31.055Z,2.50
2023-05-20T21:46:33.932Z,2.50
2023-05-20T21:51:36.948Z,2.70
2023-05-20T21:56:41.096Z,2.70
2023-05-20T22:01:43.959Z,2.60
2023-05-20T22:06:46.811Z,2.67
2023-05-20T22:11:51.096Z,2.78
2023-05-20T22:16:53.939Z,2.63
2023-05-20T22:21:57.134Z,2.75
2023-05-20T22:27:01.633Z,3.65
2023-05-20T22:32:04.957Z,2.47
2023-05-20T22:37:09.229Z,2.60
2023-05-20T22:42:13.405Z,2.30
2023-05-20T22:47:16.282Z,3.45
2023-05-20T22:52:21.247Z,2.70
2023-05-20T22:57:25.891Z,2.50
2023-05-20T23:02:30.411Z,2.63
2023-05-20T23:07:33.307Z,2.40
2023-05-20T23:12:37.623Z,2.38
2023-05-20T23:17:40.502Z,2.78
2023-05-20T23:22:43.384Z,2.30
2023-05-20T23:27:47.538Z,2.42
2023-05-20T23:32:51.266Z,2.55
2023-05-20T23:37:54.160Z,2.70
2023-05-20T23:42:58.365Z,2.28
2023-05-20T23:48:03.401Z,2.90
2023-05-20T23:53:06.230Z,2.47
2023-05-20T23:58:10.679Z,3.00
